createdAt,value
2022-11-08T00:01:45.715Z,79.60
2022-11-08T00:04:16.546Z,79.69
2022-11-08T00:07:04.643Z,79.69
2022-11-08T00:09:51.796Z,79.99
2022-11-08T00:12:39.852Z,79.62
2022-11-08T00:15:10.632Z,79.42
2022-11-08T00:17:39.110Z,79.61
2022-11-08T00:20:11.517Z,79.29
2022-11-08T00:22:40.414Z,79.92
2022-11-08T00:25:11.353Z,79.63
2022-11-08T00:27:42.505Z,79.97
2022-11-08T00:30:16.605Z,79.76
2022-11-08T00:32:45.053Z,79.42
2022-11-08T00:35:13.841Z,80.07
2022-11-08T00:37:44.807Z,80.26
2022-11-08T00:40:14.032Z,79.49
2022-11-08T00:42:42.638Z,79.53
2022-11-08T00:45:13.956Z,79.79
2022-11-08T00:47:44.653Z,79.88
2022-11-08T00:50:14.367Z,79.72
2022-11-08T00:52:45.345Z,79.98
2022-11-08T00:55:13.856Z,79.75
2022-11-08T00:57:58.479Z,79.96
2022-11-08T01:00:28.574Z,80.09
2022-11-08T01:03:11.798Z,79.97
2022-11-08T01:05:40.421Z,79.83
2022-11-08T01:08:13.314Z,79.89
2022-11-08T01:10:42.835Z,80.30
2022-11-08T01:13:14.073Z,80.00
2022-11-08T01:15:46.550Z,80.35
2022-11-08T01:18:20.020Z,79.62
2022-11-08T01:20:50.900Z,80.22
2022-11-08T01:23:19.780Z,79.99
2022-11-08T01:25:51.727Z,80.15
2022-11-08T01:28:21.199Z,79.96
2022-11-08T01:30:50.770Z,80.06
2022-11-08T01:33:19.472Z,80.14
2022-11-08T01:35:48.045Z,79.92
2022-11-08T01:38:19.495Z,80.26
2022-11-08T01:40:53.571Z,80.11
2022-11-08T01:43:36.462Z,79.95
2022-11-08T01:46:41.128Z,80.01
2022-11-08T01:49:36.133Z,79.68
2022-11-08T01:52:20.714Z,79.73
2022-11-08T01:54:56.785Z,79.64
2022-11-08T01:57:28.574Z,80.18
2022-11-08T02:00:01.316Z,79.86
2022-11-08T02:02:38.800Z,80.16
2022-11-08T02:05:24.296Z,79.77
2022-11-08T02:07:59.208Z,80.06
2022-11-08T02:10:33.405Z,80.05
2022-11-08T02:13:05.217Z,80.43
2022-11-08T02:15:35.284Z,79.92
2022-11-08T02:18:04.174Z,80.09
2022-11-08T02:20:33.791Z,80.52
2022-11-08T02:23:11.782Z,80.13
2022-11-08T02:25:42.709Z,79.98
2022-11-08T02:28:12.616Z,80.48
2022-11-08T02:30:41.677Z,80.19
2022-11-08T02:33:20.577Z,79.93
2022-11-08T02:35:51.686Z,79.87
2022-11-08T02:38:21.045Z,80.29
2022-11-08T02:40:55.268Z,79.77
2022-11-08T02:43:26.145Z,80.20
2022-11-08T02:45:59.158Z,80.47
2022-11-08T02:48:31.170Z,80.35
2022-11-08T02:51:00.805Z,80.27
2022-11-08T02:53:34.450Z,79.97
2022-11-08T02:56:03.066Z,80.62
2022-11-08T02:58:31.597Z,80.44
2022-11-08T03:01:00.165Z,79.86
2022-11-08T03:03:29.481Z,80.32
2022-11-08T03:05:58.088Z,80.43
2022-11-08T03:08:29.495Z,80.79
2022-11-08T03:10:59.955Z,80.18
2022-11-08T03:13:30.180Z,80.14
2022-11-08T03:16:01.263Z,80.36
2022-11-08T03:18:30.742Z,80.43
2022-11-08T03:21:00.522Z,80.16
2022-11-08T03:23:31.161Z,79.90
2022-11-08T03:26:02.419Z,80.43
2022-11-08T03:28:31.092Z,79.98
2022-11-08T03:30:59.682Z,80.49
2022-11-08T03:33:28.881Z,80.27
2022-11-08T03:35:57.718Z,79.98
2022-11-08T03:38:26.384Z,80.28
2022-11-08T03:40:57.853Z,80.24
2022-11-08T03:43:27.465Z,80.16
2022-11-08T03:45:56.030Z,80.10
2022-11-08T03:48:24.513Z,80.22
2022-11-08T03:50:53.165Z,80.21
2022-11-08T03:53:21.754Z,79.97
2022-11-08T03:55:52.507Z,79.91
2022-11-08T03:58:21.276Z,80.35
2022-11-08T04:00:51.045Z,80.12
2022-11-08T04:03:19.780Z,80.07
2022-11-08T04:05:48.226Z,80.27
2022-11-08T04:08:18.370Z,80.56
2022-11-08T04:10:47.470Z,80.12
2022-11-08T04:13:34.835Z,80.20
2022-11-08T04:16:03.893Z,80.16
2022-11-08T04:18:52.241Z,80.28
2022-11-08T04:21:24.271Z,80.23
2022-11-08T04:23:56.076Z,80.27
2022-11-08T04:26:27.156Z,80.23
2022-11-08T04:28:55.720Z,80.27
2022-11-08T04:31:26.172Z,80.18
2022-11-08T04:33:55.828Z,80.11
2022-11-08T04:36:24.307Z,80.25
2022-11-08T04:38:54.068Z,80.18
2022-11-08T04:41:24.491Z,80.45
2022-11-08T04:43:56.110Z,80.29
2022-11-08T04:46:30.999Z,80.25
2022-11-08T04:49:03.965Z,80.08
2022-11-08T04:51:33.543Z,80.24
2022-11-08T04:54:05.871Z,80.09
2022-11-08T04:56:34.774Z,80.44
2022-11-08T04:59:07.271Z,80.31
2022-11-08T05:01:41.069Z,80.34
2022-11-08T05:04:10.184Z,79.88
2022-11-08T05:06:39.071Z,80.00
2022-11-08T05:09:08.027Z,80.14
2022-11-08T05:11:38.952Z,80.04
2022-11-08T05:14:07.550Z,80.20
2022-11-08T05:16:39.746Z,80.22
2022-11-08T05:19:13.017Z,80.06
2022-11-08T05:22:02.355Z,80.11
2022-11-08T05:24:31.537Z,80.08
2022-11-08T05:27:01.265Z,80.07
2022-11-08T05:29:34.844Z,80.28
2022-11-08T05:32:06.589Z,80.10
2022-11-08T05:34:40.792Z,79.94
2022-11-08T05:37:08.890Z,80.28
2022-11-08T05:39:38.180Z,80.48
2022-11-08T05:42:07.482Z,80.47
2022-11-08T05:44:36.049Z,80.61
2022-11-08T05:47:05.472Z,80.46
2022-11-08T05:49:34.065Z,80.26
2022-11-08T05:52:07.336Z,80.44
2022-11-08T05:54:36.164Z,80.13
2022-11-08T05:57:05.025Z,80.19
2022-11-08T05:59:39.010Z,80.42
2022-11-08T06:02:07.753Z,80.12
2022-11-08T06:04:36.587Z,80.15
2022-11-08T06:07:05.677Z,80.35
2022-11-08T06:09:36.798Z,80.44
2022-11-08T06:12:07.083Z,80.64
2022-11-08T06:14:36.644Z,80.75
2022-11-08T06:17:06.472Z,80.35
2022-11-08T06:19:35.596Z,80.28
2022-11-08T06:22:04.362Z,80.75
2022-11-08T06:24:33.192Z,80.61
2022-11-08T06:27:02.052Z,80.73
2022-11-08T06:29:33.479Z,80.55
2022-11-08T06:32:02.496Z,80.86
2022-11-08T06:34:31.768Z,80.74
2022-11-08T06:37:00.543Z,80.41
2022-11-08T06:39:32.536Z,81.35
2022-11-08T06:42:01.425Z,81.19
2022-11-08T06:44:30.031Z,80.96
2022-11-08T06:46:59.336Z,81.42
2022-11-08T06:49:31.096Z,81.12
2022-11-08T06:51:59.573Z,81.28
2022-11-08T06:54:30.812Z,80.94
2022-11-08T06:57:01.616Z,81.12
2022-11-08T06:59:30.193Z,81.05
2022-11-08T07:01:58.882Z,81.10
2022-11-08T07:04:27.514Z,81.18
2022-11-08T07:06:59.125Z,81.26
2022-11-08T07:09:27.736Z,81.03
2022-11-08T07:11:56.973Z,80.91
2022-11-08T07:14:25.525Z,81.06
2022-11-08T07:16:54.010Z,80.73
2022-11-08T07:19:22.531Z,80.82
2022-11-08T07:21:53.154Z,80.71
2022-11-08T07:24:21.605Z,80.75
2022-11-08T07:26:52.084Z,81.08
2022-11-08T07:29:20.848Z,80.84
2022-11-08T07:31:49.373Z,80.62
2022-11-08T07:34:18.826Z,80.52
2022-11-08T07:36:47.328Z,80.37
2022-11-08T07:39:16.183Z,80.18
2022-11-08T07:41:44.768Z,80.47
2022-11-08T07:44:13.395Z,80.48
2022-11-08T07:46:41.885Z,80.35
2022-11-08T07:49:10.527Z,80.76
2022-11-08T07:51:38.949Z,80.76
2022-11-08T07:54:07.431Z,80.91
2022-11-08T07:56:35.967Z,80.08
2022-11-08T07:59:04.788Z,80.56
2022-11-08T08:01:35.208Z,80.88
2022-11-08T08:04:04.285Z,80.18
2022-11-08T08:06:32.911Z,80.24
2022-11-08T08:09:01.486Z,79.51
2022-11-08T08:11:33.620Z,79.49
2022-11-08T08:14:02.544Z,78.59
2022-11-08T08:16:34.513Z,78.58
2022-11-08T08:19:03.504Z,78.92
2022-11-08T08:21:32.092Z,79.66
2022-11-08T08:24:00.566Z,78.73
2022-11-08T08:26:29.313Z,79.39
2022-11-08T08:28:57.797Z,79.00
2022-11-08T08:31:26.289Z,75.53
2022-11-08T08:33:54.713Z,74.27
2022-11-08T08:36:23.239Z,74.19
2022-11-08T08:38:53.274Z,75.13
2022-11-08T08:41:21.769Z,75.84
2022-11-08T08:43:51.660Z,76.56
2022-11-08T08:46:20.204Z,76.30
2022-11-08T08:48:49.534Z,76.23
2022-11-08T08:51:21.148Z,76.30
2022-11-08T08:53:50.030Z,76.26
2022-11-08T08:56:19.179Z,76.67
2022-11-08T09:01:42.444Z,76.44
2022-11-08T09:04:10.947Z,76.14
2022-11-08T09:06:39.526Z,76.69
2022-11-08T09:09:08.012Z,76.73
2022-11-08T09:11:39.565Z,76.61
2022-11-08T09:14:08.106Z,76.04
2022-11-08T09:16:38.924Z,75.88
2022-11-08T09:19:07.439Z,75.72
2022-11-08T09:21:35.964Z,75.90
2022-11-08T09:24:05.006Z,75.78
2022-11-08T09:26:34.198Z,76.25
2022-11-08T09:29:02.683Z,76.01
2022-11-08T09:31:35.828Z,75.73
2022-11-08T09:34:06.816Z,72.60
2022-11-08T09:36:35.369Z,68.90
2022-11-08T09:39:04.091Z,69.14
2022-11-08T09:41:57.457Z,67.54
2022-11-08T09:44:55.186Z,66.16
2022-11-08T09:47:26.776Z,64.33
2022-11-08T09:50:02.742Z,63.78
2022-11-08T09:52:34.562Z,62.70
2022-11-08T09:55:16.540Z,61.73
2022-11-08T09:57:55.870Z,61.71
2022-11-08T10:00:24.911Z,60.03
2022-11-08T10:02:53.803Z,59.75
2022-11-08T10:05:22.604Z,59.43
2022-11-08T10:07:58.395Z,58.79
2022-11-08T10:11:04.459Z,58.33
2022-11-08T10:13:43.795Z,57.38
2022-11-08T10:16:27.664Z,57.28
2022-11-08T10:19:02.188Z,56.92
2022-11-08T10:21:46.616Z,57.16
2022-11-08T10:24:23.976Z,57.42
2022-11-08T10:26:54.969Z,57.46
2022-11-08T10:29:27.038Z,58.36
2022-11-08T10:32:02.604Z,59.64
2022-11-08T10:34:39.550Z,60.24
2022-11-08T10:37:14.951Z,60.36
2022-11-08T10:39:54.292Z,60.81
2022-11-08T10:42:34.512Z,61.28
2022-11-08T10:45:03.278Z,60.86
2022-11-08T10:47:33.726Z,61.27
2022-11-08T10:50:06.392Z,61.68
2022-11-08T10:52:40.704Z,61.80
2022-11-08T10:55:22.641Z,62.04
2022-11-08T10:57:53.981Z,61.29
2022-11-08T11:00:29.661Z,61.20
2022-11-08T11:03:00.294Z,61.33
2022-11-08T11:05:32.829Z,61.21
2022-11-08T11:08:15.625Z,61.52
2022-11-08T11:10:46.333Z,61.73
2022-11-08T11:13:20.401Z,61.60
2022-11-08T11:15:52.830Z,62.11
2022-11-08T11:18:33.631Z,61.83
2022-11-08T11:21:07.227Z,62.08
2022-11-08T11:23:43.541Z,62.02
2022-11-08T11:26:34.085Z,61.91
2022-11-08T11:29:16.580Z,62.15
2022-11-08T11:31:47.220Z,62.59
2022-11-08T11:34:40.273Z,62.29
2022-11-08T11:37:20.430Z,62.35
2022-11-08T11:39:59.962Z,62.28
2022-11-08T11:42:49.365Z,62.12
2022-11-08T11:45:25.051Z,62.73
2022-11-08T11:47:55.727Z,62.97
2022-11-08T11:50:32.071Z,62.68
2022-11-08T11:53:04.346Z,62.47
2022-11-08T11:56:06.312Z,62.61
2022-11-08T11:58:57.972Z,62.65
2022-11-08T12:01:50.887Z,63.03
2022-11-08T12:04:37.205Z,62.56
2022-11-08T12:07:11.724Z,62.72
2022-11-08T12:09:54.448Z,62.83
2022-11-08T12:12:49.598Z,62.76
2022-11-08T12:15:26.639Z,63.25
2022-11-08T12:18:37.009Z,62.92
2022-11-08T12:21:12.047Z,63.01
2022-11-08T12:24:01.143Z,62.83
2022-11-08T12:26:40.031Z,62.69
2022-11-08T12:29:22.621Z,62.52
2022-11-08T12:32:21.118Z,62.92
2022-11-08T12:35:08.243Z,62.52
2022-11-08T12:37:50.757Z,62.84
2022-11-08T12:40:27.323Z,62.80
2022-11-08T12:43:08.549Z,63.11
2022-11-08T12:45:55.574Z,62.75
2022-11-08T12:48:40.147Z,62.62
2022-11-08T12:51:22.601Z,63.26
2022-11-08T12:54:08.486Z,63.37
2022-11-08T12:56:43.062Z,62.86
2022-11-08T12:59:20.305Z,63.25
2022-11-08T13:01:49.944Z,63.18
2022-11-08T13:04:38.696Z,63.39
2022-11-08T13:07:24.919Z,63.39
2022-11-08T13:10:00.455Z,63.11
2022-11-08T13:12:40.886Z,63.62
2022-11-08T13:15:18.661Z,63.40
2022-11-08T13:18:23.618Z,63.60
2022-11-08T13:20:55.302Z,63.23
2022-11-08T13:23:30.501Z,63.68
2022-11-08T13:26:19.989Z,63.42
2022-11-08T13:28:49.936Z,63.52
2022-11-08T13:31:36.910Z,63.81
2022-11-08T13:34:32.348Z,63.42
2022-11-08T13:37:17.336Z,63.61
2022-11-08T13:40:00.427Z,63.90
2022-11-08T13:42:37.909Z,63.95
2022-11-08T13:45:25.748Z,64.06
2022-11-08T13:47:58.364Z,64.33
2022-11-08T13:50:54.710Z,63.73
2022-11-08T13:53:57.338Z,63.80
2022-11-08T13:56:48.920Z,64.15
2022-11-08T13:59:55.007Z,64.18
2022-11-08T14:02:45.048Z,64.01
2022-11-08T14:05:24.777Z,64.71
2022-11-08T14:08:18.850Z,64.75
2022-11-08T14:11:22.310Z,64.03
2022-11-08T14:14:05.476Z,64.16
2022-11-08T14:16:47.281Z,65.07
2022-11-08T14:19:22.532Z,64.76
2022-11-08T14:21:59.818Z,64.31
2022-11-08T14:24:31.286Z,64.75
2022-11-08T14:27:00.554Z,64.87
2022-11-08T14:29:29.817Z,64.43
2022-11-08T14:32:07.275Z,64.60
2022-11-08T14:34:40.025Z,64.96
2022-11-08T14:37:17.130Z,65.16
2022-11-08T14:39:47.879Z,64.99
2022-11-08T14:42:23.082Z,64.52
2022-11-08T14:44:58.409Z,64.83
2022-11-08T14:47:32.234Z,64.81
2022-11-08T14:50:01.123Z,65.31
2022-11-08T14:52:31.592Z,64.99
2022-11-08T14:55:04.972Z,65.94
2022-11-08T14:57:37.919Z,65.58
2022-11-08T15:00:16.312Z,66.28
2022-11-08T15:02:49.148Z,65.78
2022-11-08T15:05:42.406Z,65.82
2022-11-08T15:08:22.740Z,65.52
2022-11-08T15:10:59.137Z,66.11
2022-11-08T15:13:34.484Z,66.34
2022-11-08T15:16:06.942Z,65.80
2022-11-08T15:18:41.387Z,66.32
2022-11-08T15:21:26.986Z,66.53
2022-11-08T15:24:11.303Z,66.58
2022-11-08T15:26:41.113Z,66.04
2022-11-08T15:29:18.944Z,66.70
2022-11-08T15:31:56.980Z,66.95
2022-11-08T15:34:45.155Z,66.07
2022-11-08T15:37:21.741Z,66.34
2022-11-08T15:39:53.311Z,66.96
2022-11-08T15:42:22.480Z,67.72
2022-11-08T15:45:04.702Z,67.71
2022-11-08T15:47:39.153Z,67.24
2022-11-08T15:50:17.629Z,67.63
2022-11-08T15:52:51.714Z,67.31
2022-11-08T15:55:22.327Z,67.69
2022-11-08T15:57:55.812Z,67.95
2022-11-08T16:00:25.983Z,67.66
2022-11-08T16:02:55.359Z,67.62
2022-11-08T16:05:25.739Z,67.42
2022-11-08T16:07:55.221Z,67.95
2022-11-08T16:10:29.605Z,68.22
2022-11-08T16:13:06.289Z,67.56
2022-11-08T16:15:38.793Z,67.88
2022-11-08T16:18:10.267Z,68.66
2022-11-08T16:20:39.259Z,68.19
2022-11-08T16:23:09.728Z,68.99
2022-11-08T16:25:43.173Z,68.61
2022-11-08T16:28:20.953Z,68.71
2022-11-08T16:30:52.223Z,68.74
2022-11-08T16:33:23.363Z,68.70
2022-11-08T16:35:55.652Z,68.65
2022-11-08T16:38:27.582Z,69.21
2022-11-08T16:40:57.128Z,68.89
2022-11-08T16:43:25.671Z,69.42
2022-11-08T16:46:10.717Z,68.92
2022-11-08T16:51:24.684Z,69.35
2022-11-08T16:53:56.830Z,69.16
2022-11-08T16:56:25.467Z,69.33
2022-11-08T16:58:54.145Z,69.80
2022-11-08T17:01:30.611Z,69.75
2022-11-08T17:04:06.506Z,70.00
2022-11-08T17:06:35.270Z,69.73
2022-11-08T17:09:04.015Z,69.80
2022-11-08T17:11:34.442Z,70.09
2022-11-08T17:14:06.034Z,69.77
2022-11-08T17:16:40.398Z,70.00
2022-11-08T17:19:08.976Z,70.07
2022-11-08T17:21:45.744Z,70.21
2022-11-08T17:24:21.657Z,70.45
2022-11-08T17:26:53.498Z,70.46
2022-11-08T17:29:24.646Z,70.37
2022-11-08T17:31:56.674Z,70.32
2022-11-08T17:34:26.773Z,70.20
2022-11-08T17:36:55.542Z,70.52
2022-11-08T17:39:23.980Z,70.28
2022-11-08T17:41:54.801Z,70.58
2022-11-08T17:44:23.404Z,70.71
2022-11-08T17:46:54.128Z,70.28
2022-11-08T17:49:22.749Z,70.97
2022-11-08T17:51:54.159Z,71.04
2022-11-08T17:54:22.709Z,70.84
2022-11-08T17:56:55.011Z,71.08
2022-11-08T17:59:23.716Z,71.06
2022-11-08T18:01:55.015Z,71.16
2022-11-08T18:04:23.597Z,71.35
2022-11-08T18:06:54.908Z,71.31
2022-11-08T18:09:23.930Z,71.29
2022-11-08T18:11:53.659Z,71.61
2022-11-08T18:14:28.239Z,71.54
2022-11-08T18:16:59.221Z,71.44
2022-11-08T18:19:28.179Z,71.58
2022-11-08T18:21:56.682Z,71.86
2022-11-08T18:24:25.211Z,71.79
2022-11-08T18:26:53.912Z,72.03
2022-11-08T18:29:23.294Z,72.24
2022-11-08T18:32:01.298Z,72.06
2022-11-08T18:34:34.040Z,72.43
2022-11-08T18:37:02.663Z,71.70
2022-11-08T18:39:33.974Z,71.78
2022-11-08T18:42:04.515Z,71.96
2022-11-08T18:44:33.834Z,72.24
2022-11-08T18:47:04.912Z,72.54
2022-11-08T18:49:33.589Z,72.31
2022-11-08T18:52:03.788Z,72.60
2022-11-08T18:54:33.343Z,72.24
2022-11-08T18:57:19.947Z,72.31
2022-11-08T18:59:49.167Z,72.67
2022-11-08T19:02:18.461Z,72.60
2022-11-08T19:05:23.614Z,72.30
2022-11-08T19:08:09.560Z,72.90
2022-11-08T19:10:54.318Z,73.19
2022-11-08T19:13:29.585Z,72.66
2022-11-08T19:16:13.821Z,72.76
2022-11-08T19:18:57.731Z,73.43
2022-11-08T19:21:27.929Z,73.15
2022-11-08T19:23:59.147Z,72.77
2022-11-08T19:26:29.250Z,73.41
2022-11-08T19:28:58.245Z,72.97
2022-11-08T19:31:30.048Z,73.46
2022-11-08T19:34:08.757Z,73.39
2022-11-08T19:36:43.009Z,73.19
2022-11-08T19:39:13.274Z,73.45
2022-11-08T19:42:11.843Z,73.58
2022-11-08T19:44:40.494Z,73.58
2022-11-08T19:47:09.481Z,73.81
2022-11-08T19:49:39.339Z,73.56
2022-11-08T19:52:43.411Z,73.69
2022-11-08T19:55:12.313Z,73.57
2022-11-08T19:57:41.446Z,73.61
2022-11-08T20:00:14.935Z,73.93
2022-11-08T20:02:43.983Z,73.83
2022-11-08T20:05:12.877Z,73.74
2022-11-08T20:07:45.358Z,74.16
2022-11-08T20:10:14.899Z,73.93
2022-11-08T20:12:43.924Z,74.09
2022-11-08T20:15:13.031Z,74.08
2022-11-08T20:17:42.073Z,74.32
2022-11-08T20:20:13.596Z,74.26
2022-11-08T20:22:47.837Z,74.13
2022-11-08T20:25:16.969Z,74.62
2022-11-08T20:27:45.569Z,74.15
2022-11-08T20:30:14.634Z,74.42
2022-11-08T20:32:46.019Z,74.28
2022-11-08T20:35:19.220Z,74.70
2022-11-08T20:37:55.926Z,74.61
2022-11-08T20:40:24.423Z,74.72
2022-11-08T20:42:54.098Z,74.52
2022-11-08T20:45:22.707Z,74.23
2022-11-08T20:47:52.477Z,74.99
2022-11-08T20:50:21.051Z,74.99
2022-11-08T20:52:49.692Z,74.30
2022-11-08T20:55:20.302Z,74.80
2022-11-08T20:57:49.700Z,74.77
2022-11-08T21:00:32.917Z,74.98
2022-11-08T21:03:09.572Z,74.76
2022-11-08T21:05:40.779Z,74.98
2022-11-08T21:11:05.115Z,74.95
2022-11-08T21:13:38.694Z,75.22
2022-11-08T21:16:28.840Z,74.90
2022-11-08T21:19:06.513Z,75.30
2022-11-08T21:21:39.167Z,75.17
2022-11-08T21:24:09.651Z,75.20
2022-11-08T21:26:40.077Z,75.14
2022-11-08T21:29:11.539Z,75.40
2022-11-08T21:31:43.313Z,75.23
2022-11-08T21:34:12.330Z,75.47
2022-11-08T21:36:41.174Z,75.27
2022-11-08T21:39:11.228Z,75.55
2022-11-08T21:41:42.548Z,75.51
2022-11-08T21:44:11.512Z,75.27
2022-11-08T21:46:43.399Z,75.60
2022-11-08T21:49:13.404Z,76.00
2022-11-08T21:51:42.184Z,75.44
2022-11-08T21:54:12.370Z,75.47
2022-11-08T21:56:42.533Z,75.46
2022-11-08T21:59:12.088Z,75.67
2022-11-08T22:01:41.300Z,76.08
2022-11-08T22:04:10.356Z,75.73
2022-11-08T22:06:46.395Z,75.66
2022-11-08T22:09:16.427Z,75.98
2022-11-08T22:11:45.217Z,75.64
2022-11-08T22:14:14.310Z,75.91
2022-11-08T22:16:43.251Z,75.85
2022-11-08T22:19:12.702Z,75.71
2022-11-08T22:21:43.746Z,75.53
2022-11-08T22:24:14.689Z,75.58
2022-11-08T22:26:43.848Z,75.67
2022-11-08T22:29:13.346Z,75.67
2022-11-08T22:31:42.516Z,76.08
2022-11-08T22:34:12.108Z,76.01
2022-11-08T22:36:45.901Z,75.62
2022-11-08T22:39:19.930Z,76.52
2022-11-08T22:41:53.003Z,76.18
2022-11-08T22:44:22.308Z,76.15
2022-11-08T22:46:53.397Z,76.48
2022-11-08T22:49:22.264Z,76.43
2022-11-08T22:51:53.998Z,76.35
2022-11-08T22:54:22.920Z,76.16
2022-11-08T22:56:54.452Z,76.52
2022-11-08T22:59:23.949Z,76.13
2022-11-08T23:01:54.997Z,76.20
2022-11-08T23:04:25.551Z,76.46
2022-11-08T23:06:54.468Z,76.41
2022-11-08T23:09:23.333Z,76.67
2022-11-08T23:12:13.804Z,76.26
2022-11-08T23:15:02.484Z,76.40
2022-11-08T23:17:31.441Z,76.48
2022-11-08T23:20:19.946Z,76.31
2022-11-08T23:23:07.434Z,76.54
2022-11-08T23:25:36.367Z,76.52
2022-11-08T23:28:35.396Z,76.85
2022-11-08T23:31:22.735Z,76.50
2022-11-08T23:33:53.987Z,76.90
2022-11-08T23:36:22.747Z,76.74
2022-11-08T23:38:53.651Z,76.50
2022-11-08T23:41:41.044Z,76.27
2022-11-08T23:44:27.278Z,76.49
2022-11-08T23:46:58.071Z,76.38
2022-11-08T23:49:26.867Z,76.81
2022-11-08T23:51:55.625Z,76.46
2022-11-08T23:54:24.141Z,76.72
2022-11-08T23:56:54.220Z,76.96
2022-11-08T23:59:22.683Z,76.61
